createdAt,value
2023-03-16T00:01:28.101Z,6.60
2023-03-16T00:03:56.077Z,6.10
2023-03-16T00:06:25.767Z,6.53
2023-03-16T00:08:59.016Z,6.10
2023-03-16T00:11:27.121Z,6.67
2023-03-16T00:13:55.340Z,6.47
2023-03-16T00:16:23.519Z,5.20
2023-03-16T00:18:51.550Z,5.97
2023-03-16T00:21:19.625Z,5.23
2023-03-16T00:23:47.821Z,4.80
2023-03-16T00:26:17.105Z,6.37
2023-03-16T00:28:45.163Z,5.40
2023-03-16T00:31:13.742Z,6.33
2023-03-16T00:33:42.749Z,5.43
2023-03-16T00:36:11.848Z,5.60
2023-03-16T00:38:45.596Z,5.10
2023-03-16T00:41:15.869Z,5.13
2023-03-16T00:43:45.753Z,5.60
2023-03-16T00:46:15.516Z,5.73
2023-03-16T00:48:46.628Z,5.80
2023-03-16T00:51:16.941Z,4.80
2023-03-16T00:53:47.568Z,5.40
2023-03-16T00:56:16.024Z,5.77
2023-03-16T00:58:45.587Z,5.68
2023-03-16T01:01:16.316Z,5.40
2023-03-16T01:03:44.675Z,6.07
2023-03-16T01:06:14.398Z,6.47
2023-03-16T01:08:42.893Z,6.10
2023-03-16T01:11:13.563Z,6.10
2023-03-16T01:13:41.586Z,5.23
2023-03-16T01:16:11.950Z,7.00
2023-03-16T01:18:40.758Z,7.57
2023-03-16T01:21:10.576Z,6.50
2023-03-16T01:23:39.103Z,5.20
2023-03-16T01:26:08.477Z,5.63
2023-03-16T01:28:37.032Z,6.63
2023-03-16T01:31:11.610Z,6.63
2023-03-16T01:33:39.955Z,6.70
2023-03-16T01:36:11.024Z,7.33
2023-03-16T01:38:39.141Z,6.10
2023-03-16T01:41:07.613Z,6.47
2023-03-16T01:43:37.626Z,6.70
2023-03-16T01:46:26.811Z,6.73
2023-03-16T01:49:01.615Z,7.30
2023-03-16T01:51:35.657Z,6.73
2023-03-16T01:54:07.835Z,6.90
2023-03-16T01:56:41.860Z,6.27
2023-03-16T01:59:15.097Z,8.00
2023-03-16T02:01:45.029Z,8.10
2023-03-16T02:04:24.690Z,7.77
2023-03-16T02:06:54.620Z,8.23
2023-03-16T02:09:23.483Z,8.65
2023-03-16T02:11:52.350Z,8.07
2023-03-16T02:14:20.326Z,7.43
2023-03-16T02:16:50.904Z,9.17
2023-03-16T02:19:27.920Z,8.33
2023-03-16T02:22:02.255Z,8.80
2023-03-16T02:24:30.418Z,8.17
2023-03-16T02:27:01.608Z,8.17
2023-03-16T02:29:55.330Z,8.50
2023-03-16T02:32:25.656Z,8.30
2023-03-16T02:34:53.687Z,8.00
2023-03-16T02:37:22.001Z,8.67
2023-03-16T02:39:50.629Z,8.50
2023-03-16T02:42:21.878Z,10.33
2023-03-16T02:44:54.539Z,9.70
2023-03-16T02:47:29.984Z,9.20
2023-03-16T02:49:58.053Z,8.90
2023-03-16T02:52:26.145Z,9.80
2023-03-16T02:54:54.410Z,10.10
2023-03-16T02:57:22.435Z,9.03
2023-03-16T02:59:50.427Z,9.53
2023-03-16T03:02:20.416Z,9.70
2023-03-16T03:04:48.557Z,9.40
2023-03-16T03:07:17.304Z,9.90
2023-03-16T03:09:45.205Z,10.20
2023-03-16T03:12:14.282Z,9.00
2023-03-16T03:14:42.529Z,10.07
2023-03-16T03:17:13.384Z,9.40
2023-03-16T03:19:42.975Z,10.30
2023-03-16T03:22:11.095Z,11.30
2023-03-16T03:24:39.027Z,11.20
2023-03-16T03:27:07.342Z,11.43
2023-03-16T03:29:35.440Z,10.40
2023-03-16T03:32:03.699Z,12.33
2023-03-16T03:34:32.112Z,13.00
2023-03-16T03:37:01.438Z,11.47
2023-03-16T03:39:29.412Z,12.00
2023-03-16T03:41:57.597Z,12.30
2023-03-16T03:44:27.246Z,11.40
2023-03-16T03:46:55.284Z,12.63
2023-03-16T03:49:23.208Z,12.60
2023-03-16T03:51:51.441Z,14.17
2023-03-16T03:54:20.742Z,12.77
2023-03-16T03:56:48.656Z,13.30
2023-03-16T03:59:16.759Z,10.70
2023-03-16T04:01:44.728Z,13.10
2023-03-16T04:04:12.989Z,13.70
2023-03-16T04:06:41.773Z,13.33
2023-03-16T04:09:10.047Z,12.60
2023-03-16T04:11:39.604Z,14.30
2023-03-16T04:14:07.684Z,11.03
2023-03-16T04:16:35.762Z,13.17
2023-03-16T04:19:04.611Z,13.10
2023-03-16T04:21:32.862Z,11.67
2023-03-16T04:24:04.148Z,12.63
2023-03-16T04:26:32.490Z,13.63
2023-03-16T04:29:03.655Z,13.07
2023-03-16T04:31:31.764Z,13.00
2023-03-16T04:33:59.641Z,12.37
2023-03-16T04:36:27.596Z,12.60
2023-03-16T04:38:56.210Z,13.03
2023-03-16T04:41:24.307Z,11.90
2023-03-16T04:43:52.367Z,11.53
2023-03-16T04:46:21.724Z,11.93
2023-03-16T04:48:49.803Z,11.07
2023-03-16T04:51:17.721Z,12.00
2023-03-16T04:53:45.639Z,12.10
2023-03-16T04:56:18.476Z,11.90
2023-03-16T04:58:46.676Z,11.60
2023-03-16T05:01:14.952Z,10.47
2023-03-16T05:03:44.749Z,12.47
2023-03-16T05:06:13.662Z,11.80
2023-03-16T05:08:41.620Z,13.30
2023-03-16T05:11:09.827Z,12.57
2023-03-16T05:13:38.004Z,11.90
2023-03-16T05:16:07.416Z,11.20
2023-03-16T05:18:35.371Z,11.43
2023-03-16T05:21:04.724Z,10.63
2023-03-16T05:23:32.968Z,11.23
2023-03-16T05:26:01.043Z,11.73
2023-03-16T05:28:29.777Z,12.20
2023-03-16T05:30:57.867Z,11.40
2023-03-16T05:33:25.985Z,13.33
2023-03-16T05:35:54.093Z,11.80
2023-03-16T05:38:23.417Z,10.90
2023-03-16T05:40:53.172Z,10.20
2023-03-16T05:43:21.893Z,11.73
2023-03-16T05:45:49.988Z,12.70
2023-03-16T05:48:17.918Z,12.50
2023-03-16T05:50:45.959Z,12.63
2023-03-16T05:53:15.513Z,12.33
2023-03-16T05:55:44.906Z,11.30
2023-03-16T05:58:12.872Z,9.57
2023-03-16T06:00:40.967Z,11.50
2023-03-16T06:03:08.974Z,12.10
2023-03-16T06:05:37.202Z,12.27
2023-03-16T06:08:05.326Z,11.40
2023-03-16T06:10:33.588Z,12.17
2023-03-16T06:13:03.090Z,10.90
2023-03-16T06:15:31.012Z,12.03
2023-03-16T06:17:59.064Z,9.60
2023-03-16T06:20:27.193Z,11.00
2023-03-16T06:22:55.420Z,10.53
2023-03-16T06:25:24.063Z,10.97
2023-03-16T06:27:52.011Z,8.70
2023-03-16T06:30:21.694Z,10.07
2023-03-16T06:32:50.131Z,8.87
2023-03-16T06:35:18.094Z,8.53
2023-03-16T06:37:46.356Z,7.73
2023-03-16T06:40:15.036Z,7.90
2023-03-16T06:42:46.328Z,8.53
2023-03-16T06:45:16.806Z,9.07
2023-03-16T06:47:46.105Z,8.60
2023-03-16T06:50:14.011Z,9.40
2023-03-16T06:52:42.656Z,8.20
2023-03-16T06:55:12.583Z,8.53
2023-03-16T06:57:40.447Z,7.80
2023-03-16T07:00:10.173Z,7.80
2023-03-16T07:02:40.547Z,7.87
2023-03-16T07:05:13.180Z,7.30
2023-03-16T07:07:42.512Z,8.10
2023-03-16T07:10:12.626Z,8.20
2023-03-16T07:12:42.422Z,6.57
2023-03-16T07:15:11.900Z,6.93
2023-03-16T07:17:40.279Z,8.60
2023-03-16T07:20:11.555Z,8.93
2023-03-16T07:22:41.602Z,8.43
2023-03-16T07:25:11.423Z,8.77
2023-03-16T07:27:41.287Z,8.50
2023-03-16T07:30:12.257Z,8.40
2023-03-16T07:32:40.212Z,8.27
2023-03-16T07:35:11.635Z,8.43
2023-03-16T07:37:40.072Z,8.50
2023-03-16T07:40:09.502Z,8.80
2023-03-16T07:42:37.883Z,8.03
2023-03-16T07:45:07.300Z,7.50
2023-03-16T07:47:35.396Z,8.30
2023-03-16T07:50:03.596Z,8.00
2023-03-16T07:52:35.856Z,8.70
2023-03-16T07:55:06.270Z,9.23
2023-03-16T07:57:34.345Z,8.17
2023-03-16T08:00:05.073Z,8.17
2023-03-16T08:02:33.037Z,8.00
2023-03-16T08:05:01.225Z,7.80
2023-03-16T08:07:29.202Z,7.80
2023-03-16T08:09:58.669Z,7.53
2023-03-16T08:12:26.790Z,8.20
2023-03-16T08:14:55.452Z,7.27
2023-03-16T08:17:23.371Z,8.50
2023-03-16T08:19:51.708Z,6.90
2023-03-16T08:22:19.582Z,6.70
2023-03-16T08:24:47.637Z,8.57
2023-03-16T08:27:18.034Z,7.80
2023-03-16T08:29:46.096Z,8.27
2023-03-16T08:32:14.496Z,7.47
2023-03-16T08:34:42.581Z,7.20
2023-03-16T08:37:11.715Z,6.90
2023-03-16T08:39:41.997Z,7.83
2023-03-16T08:42:10.642Z,7.70
2023-03-16T08:44:40.045Z,8.97
2023-03-16T08:47:08.167Z,7.03
2023-03-16T08:49:37.077Z,7.23
2023-03-16T08:52:05.552Z,6.50
2023-03-16T08:54:33.648Z,6.90
2023-03-16T08:57:01.788Z,6.10
2023-03-16T08:59:30.791Z,6.87
2023-03-16T09:02:00.459Z,6.63
2023-03-16T09:04:30.183Z,6.30
2023-03-16T09:07:08.494Z,6.73
2023-03-16T09:09:37.694Z,6.70
2023-03-16T09:12:06.977Z,5.90
2023-03-16T09:14:35.687Z,5.87
2023-03-16T09:17:05.301Z,6.10
2023-03-16T09:19:49.940Z,6.17
2023-03-16T09:22:19.536Z,6.50
2023-03-16T09:24:48.561Z,5.23
2023-03-16T09:27:16.846Z,7.00
2023-03-16T09:29:45.651Z,5.80
2023-03-16T09:32:15.528Z,5.93
2023-03-16T09:34:44.890Z,6.53
2023-03-16T09:37:12.841Z,7.07
2023-03-16T09:39:41.579Z,5.03
2023-03-16T09:42:17.965Z,5.67
2023-03-16T09:44:59.693Z,5.10
2023-03-16T09:47:31.882Z,5.73
2023-03-16T09:50:04.129Z,6.60
2023-03-16T09:52:40.694Z,5.97
2023-03-16T09:55:54.472Z,6.10
2023-03-16T09:59:20.828Z,6.15
2023-03-16T10:02:05.014Z,5.80
2023-03-16T10:05:03.018Z,5.30
2023-03-16T10:07:39.403Z,4.80
2023-03-16T10:10:21.670Z,4.63
2023-03-16T10:15:41.530Z,5.53
2023-03-16T10:18:16.922Z,6.00
2023-03-16T10:20:48.166Z,5.30
2023-03-16T10:23:21.379Z,6.25
2023-03-16T10:25:51.169Z,6.00
2023-03-16T10:28:21.700Z,5.43
2023-03-16T10:30:51.564Z,6.03
2023-03-16T10:33:25.824Z,5.60
2023-03-16T10:36:01.504Z,5.63
2023-03-16T10:38:33.008Z,6.33
2023-03-16T10:41:02.210Z,6.27
2023-03-16T10:43:32.147Z,5.23
2023-03-16T10:46:02.166Z,5.50
2023-03-16T10:48:35.765Z,6.23
2023-03-16T10:51:09.299Z,5.43
2023-03-16T10:53:40.741Z,5.67
2023-03-16T10:56:13.874Z,5.73
2023-03-16T10:58:43.634Z,5.27
2023-03-16T11:01:13.793Z,5.70
2023-03-16T11:03:42.618Z,6.20
2023-03-16T11:06:22.746Z,5.77
2023-03-16T11:08:52.859Z,5.37
2023-03-16T11:11:28.453Z,5.80
2023-03-16T11:13:59.590Z,5.20
2023-03-16T11:16:32.869Z,5.30
2023-03-16T11:19:07.109Z,5.40
2023-03-16T11:21:42.954Z,5.70
2023-03-16T11:24:19.593Z,5.63
2023-03-16T11:26:54.183Z,5.10
2023-03-16T11:29:28.833Z,5.20
2023-03-16T11:32:01.202Z,6.30
2023-03-16T11:34:31.310Z,6.10
2023-03-16T11:37:10.026Z,6.50
2023-03-16T11:39:45.528Z,6.90
2023-03-16T11:42:33.250Z,6.43
2023-03-16T11:45:12.248Z,7.70
2023-03-16T11:48:04.768Z,7.10
2023-03-16T11:50:43.362Z,6.25
2023-03-16T11:53:20.743Z,5.90
2023-03-16T11:56:00.605Z,6.30
2023-03-16T11:58:44.766Z,5.93
2023-03-16T12:01:23.645Z,7.40
2023-03-16T12:04:12.289Z,6.67
2023-03-16T12:06:54.485Z,5.83
2023-03-16T12:09:58.475Z,6.30
2023-03-16T12:12:40.622Z,6.10
2023-03-16T12:15:30.693Z,5.63
2023-03-16T12:18:03.726Z,5.53
2023-03-16T12:20:35.709Z,6.80
2023-03-16T12:23:09.363Z,5.20
2023-03-16T12:25:41.308Z,6.10
2023-03-16T12:28:18.091Z,5.70
2023-03-16T12:30:51.682Z,6.40
2023-03-16T12:33:28.804Z,5.40
2023-03-16T12:36:03.934Z,5.93
2023-03-16T12:38:41.908Z,5.63
2023-03-16T12:41:20.935Z,5.00
2023-03-16T12:44:12.680Z,4.80
2023-03-16T12:46:49.996Z,5.13
2023-03-16T12:49:19.079Z,4.83
2023-03-16T12:51:48.966Z,4.70
2023-03-16T12:54:21.960Z,4.90
2023-03-16T12:56:53.008Z,4.60
2023-03-16T12:59:24.416Z,4.50
2023-03-16T13:01:57.773Z,5.07
2023-03-16T13:04:34.012Z,4.50
2023-03-16T13:07:05.067Z,4.33
2023-03-16T13:09:36.258Z,4.30
2023-03-16T13:12:05.455Z,5.00
2023-03-16T13:14:40.667Z,3.90
2023-03-16T13:17:25.477Z,4.20
2023-03-16T13:20:29.632Z,4.60
2023-03-16T13:23:22.305Z,4.40
2023-03-16T13:26:03.181Z,3.33
2023-03-16T13:28:33.744Z,3.37
2023-03-16T13:31:04.816Z,4.77
2023-03-16T13:33:36.888Z,4.00
2023-03-16T13:36:07.189Z,3.83
2023-03-16T13:38:36.227Z,3.43
2023-03-16T13:41:06.323Z,4.00
2023-03-16T13:43:37.093Z,3.40
2023-03-16T13:46:17.188Z,4.37
2023-03-16T13:48:45.419Z,3.40
2023-03-16T13:51:17.762Z,3.03
2023-03-16T13:53:46.652Z,2.90
2023-03-16T13:56:15.851Z,3.00
2023-03-16T13:58:48.586Z,3.07
2023-03-16T14:01:25.258Z,3.30
2023-03-16T14:03:56.178Z,2.80
2023-03-16T14:06:26.601Z,2.50
2023-03-16T14:08:58.834Z,2.50
2023-03-16T14:11:28.268Z,2.57
2023-03-16T14:13:58.264Z,2.30
2023-03-16T14:16:32.177Z,2.73
2023-03-16T14:19:03.917Z,2.90
2023-03-16T14:21:35.106Z,2.43
2023-03-16T14:24:04.499Z,2.93
2023-03-16T14:26:41.813Z,2.53
2023-03-16T14:29:19.995Z,2.83
2023-03-16T14:31:50.250Z,2.20
2023-03-16T14:34:28.832Z,2.43
2023-03-16T14:37:07.716Z,2.37
2023-03-16T14:39:36.050Z,2.97
2023-03-16T14:42:06.879Z,2.10
2023-03-16T14:44:38.411Z,2.60
2023-03-16T14:47:08.544Z,2.87
2023-03-16T14:49:38.651Z,2.60
2023-03-16T14:52:09.451Z,2.43
2023-03-16T14:54:37.362Z,2.10
2023-03-16T14:57:06.509Z,2.70
2023-03-16T14:59:35.206Z,2.80
2023-03-16T15:02:07.735Z,2.73
2023-03-16T15:04:38.431Z,2.20
2023-03-16T15:07:21.811Z,2.30
2023-03-16T15:09:51.753Z,2.60
2023-03-16T15:12:21.345Z,2.10
2023-03-16T15:15:07.406Z,2.20
2023-03-16T15:17:35.344Z,2.57
2023-03-16T15:20:05.522Z,2.00
2023-03-16T15:22:37.442Z,2.17
2023-03-16T15:25:21.360Z,2.60
2023-03-16T15:27:49.779Z,2.90
2023-03-16T15:30:20.746Z,2.33
2023-03-16T15:32:49.118Z,2.43
2023-03-16T15:35:19.090Z,2.23
2023-03-16T15:37:47.746Z,2.30
2023-03-16T15:40:21.586Z,2.30
2023-03-16T15:42:49.679Z,2.20
2023-03-16T15:45:20.585Z,2.23
2023-03-16T15:47:49.816Z,2.20
2023-03-16T15:50:21.785Z,2.20
2023-03-16T15:52:54.045Z,2.10
2023-03-16T15:55:24.229Z,2.30
2023-03-16T15:57:58.808Z,2.80
2023-03-16T16:00:33.082Z,2.47
2023-03-16T16:03:02.365Z,2.90
2023-03-16T16:05:32.543Z,2.87
2023-03-16T16:08:01.005Z,2.60
2023-03-16T16:10:29.864Z,2.33
2023-03-16T16:13:00.040Z,2.47
2023-03-16T16:15:32.203Z,3.13
2023-03-16T16:18:21.208Z,2.80
2023-03-16T16:20:51.473Z,2.70
2023-03-16T16:23:19.971Z,2.30
2023-03-16T16:25:48.517Z,2.50
2023-03-16T16:28:18.703Z,2.67
2023-03-16T16:30:47.469Z,2.80
2023-03-16T16:33:23.072Z,2.37
2023-03-16T16:35:52.761Z,2.83
2023-03-16T16:38:21.028Z,3.17
2023-03-16T16:40:49.320Z,2.90
2023-03-16T16:43:30.257Z,2.90
2023-03-16T16:45:58.780Z,2.90
2023-03-16T16:48:32.987Z,2.50
2023-03-16T16:51:02.659Z,3.30
2023-03-16T16:53:31.602Z,2.80
2023-03-16T16:55:59.993Z,2.70
2023-03-16T16:58:27.955Z,3.40
2023-03-16T17:00:58.224Z,3.17
2023-03-16T17:03:28.367Z,3.30
2023-03-16T17:05:59.213Z,3.60
2023-03-16T17:08:28.760Z,2.47
2023-03-16T17:10:57.121Z,3.53
2023-03-16T17:13:28.591Z,3.17
2023-03-16T17:15:56.849Z,2.77
2023-03-16T17:18:25.019Z,3.17
2023-03-16T17:20:53.494Z,3.30
2023-03-16T17:23:31.278Z,2.90
2023-03-16T17:26:01.645Z,3.37
2023-03-16T17:28:32.770Z,3.33
2023-03-16T17:31:00.962Z,3.13
2023-03-16T17:33:29.757Z,2.60
2023-03-16T17:35:57.845Z,3.50
2023-03-16T17:38:27.304Z,3.80
2023-03-16T17:40:57.080Z,4.00
2023-03-16T17:43:25.541Z,3.57
2023-03-16T17:45:54.253Z,3.50
2023-03-16T17:48:24.601Z,3.20
2023-03-16T17:50:52.735Z,3.57
2023-03-16T17:53:21.870Z,3.27
2023-03-16T17:55:49.870Z,4.50
2023-03-16T17:58:27.179Z,3.40
2023-03-16T18:00:56.373Z,3.17
2023-03-16T18:03:29.341Z,4.17
2023-03-16T18:05:58.737Z,4.07
2023-03-16T18:08:28.570Z,2.77
2023-03-16T18:10:59.856Z,3.27
2023-03-16T18:13:35.405Z,2.73
2023-03-16T18:16:05.145Z,3.23
2023-03-16T18:18:37.845Z,2.75
2023-03-16T18:21:06.403Z,2.63
2023-03-16T18:23:36.143Z,3.20
2023-03-16T18:26:04.970Z,3.30
2023-03-16T18:28:35.750Z,2.93
2023-03-16T18:31:05.050Z,3.13
2023-03-16T18:33:35.427Z,2.27
2023-03-16T18:36:06.635Z,3.20
2023-03-16T18:38:37.219Z,3.17
2023-03-16T18:41:17.038Z,3.43
2023-03-16T18:43:46.667Z,2.80
2023-03-16T18:46:23.485Z,2.53
2023-03-16T18:48:52.332Z,3.00
2023-03-16T18:51:21.787Z,2.88
2023-03-16T18:53:50.135Z,2.67
2023-03-16T18:56:21.437Z,3.10
2023-03-16T18:58:52.525Z,2.90
2023-03-16T19:01:26.070Z,2.70
2023-03-16T19:03:54.916Z,2.50
2023-03-16T19:06:27.471Z,3.50
2023-03-16T19:08:55.861Z,3.23
2023-03-16T19:11:24.213Z,2.60
2023-03-16T19:13:54.789Z,3.33
2023-03-16T19:16:23.611Z,2.97
2023-03-16T19:18:51.792Z,2.90
2023-03-16T19:21:22.853Z,3.30
2023-03-16T19:23:56.461Z,3.00
2023-03-16T19:26:24.657Z,3.80
2023-03-16T19:28:54.149Z,3.10
2023-03-16T19:31:25.394Z,3.40
2023-03-16T19:33:53.885Z,3.43
2023-03-16T19:36:25.331Z,2.73
2023-03-16T19:38:53.740Z,3.50
2023-03-16T19:41:27.119Z,3.50
2023-03-16T19:43:58.371Z,2.90
2023-03-16T19:46:28.264Z,3.60
2023-03-16T19:48:57.076Z,3.67
2023-03-16T19:51:28.966Z,3.40
2023-03-16T19:53:56.891Z,3.28
2023-03-16T19:56:26.841Z,3.70
2023-03-16T19:58:57.107Z,3.55
2023-03-16T20:01:32.680Z,3.37
2023-03-16T20:04:03.990Z,3.50
2023-03-16T20:06:33.412Z,5.63
2023-03-16T20:09:01.416Z,3.30
2023-03-16T20:11:31.248Z,3.80
2023-03-16T20:14:01.352Z,3.23
2023-03-16T20:16:32.226Z,3.90
2023-03-16T20:19:02.907Z,3.20
2023-03-16T20:21:31.270Z,3.20
2023-03-16T20:23:59.320Z,4.30
2023-03-16T20:26:32.241Z,3.30
2023-03-16T20:29:02.016Z,4.10
2023-03-16T20:31:34.564Z,3.60
2023-03-16T20:34:02.656Z,3.90
2023-03-16T20:36:30.970Z,3.80
2023-03-16T20:38:59.045Z,3.70
2023-03-16T20:41:30.950Z,3.20
2023-03-16T20:44:02.570Z,3.93
2023-03-16T20:46:32.807Z,3.63
2023-03-16T20:49:01.479Z,3.90
2023-03-16T20:51:32.580Z,3.40
2023-03-16T20:54:00.702Z,4.57
2023-03-16T20:56:28.661Z,4.57
2023-03-16T20:58:57.085Z,3.60
2023-03-16T21:01:27.505Z,3.10
2023-03-16T21:03:56.930Z,4.07
2023-03-16T21:06:28.792Z,3.73
2023-03-16T21:08:58.419Z,4.17
2023-03-16T21:11:31.217Z,4.10
2023-03-16T21:13:59.510Z,3.70
2023-03-16T21:16:29.182Z,3.67
2023-03-16T21:18:57.197Z,3.42
2023-03-16T21:21:25.533Z,3.13
2023-03-16T21:23:53.747Z,3.70
2023-03-16T21:26:24.428Z,3.83
2023-03-16T21:28:57.956Z,3.67
2023-03-16T21:31:28.017Z,3.53
2023-03-16T21:33:56.383Z,3.27
2023-03-16T21:36:26.773Z,3.70
2023-03-16T21:38:55.750Z,5.00
2023-03-16T21:41:24.326Z,3.90
2023-03-16T21:43:52.578Z,3.83
2023-03-16T21:46:22.622Z,4.10
2023-03-16T21:48:54.660Z,4.17
2023-03-16T21:51:25.389Z,3.50
2023-03-16T21:53:53.609Z,4.20
2023-03-16T21:56:24.113Z,4.00
2023-03-16T21:58:53.226Z,3.53
2023-03-16T22:01:25.089Z,3.90
2023-03-16T22:03:57.340Z,4.70
2023-03-16T22:06:27.986Z,4.03
2023-03-16T22:08:56.497Z,4.33
2023-03-16T22:11:27.729Z,3.80
2023-03-16T22:13:56.911Z,4.00
2023-03-16T22:16:26.937Z,4.03
2023-03-16T22:18:58.258Z,3.63
2023-03-16T22:21:35.262Z,3.70
2023-03-16T22:24:05.495Z,4.67
2023-03-16T22:26:33.587Z,3.63
2023-03-16T22:29:03.156Z,4.20
2023-03-16T22:31:34.452Z,4.43
2023-03-16T22:34:04.877Z,5.30
2023-03-16T22:36:34.369Z,4.50
2023-03-16T22:39:04.698Z,4.33
2023-03-16T22:41:32.955Z,4.27
2023-03-16T22:44:01.918Z,4.50
2023-03-16T22:46:30.118Z,3.90
